Monday, December 18, 2017, 9:33 AM MST
Back to Local

KGLD, Goodland Renner Field

Location: Goodland, KS, United States Lat: 39.367
Local Time: 9:33 AM MST (16:33 GMT) Lon: -101.7
Time Zone: US/Mountain Elev: 3654 ft

Show me the last for .
Show Decoded

2017-12-18 08:53 METAR KGLD 181553Z AUTO 23009KT 10SM CLR 02/M03 A2998 RMK AO2 SLP177 T00171028 =
2017-12-18 07:53 METAR KGLD 181453Z AUTO 24009KT 10SM CLR M02/M05 A2999 RMK AO2 SLP185 T10221050
                 53005 =
2017-12-18 06:53 METAR KGLD 181353Z AUTO 25008KT 10SM CLR M04/M07 A2999 RMK AO2 SLP183 T10441067
                 =
2017-12-18 05:53 METAR KGLD 181253Z AUTO 23008KT 10SM CLR M03/M06 A2998 RMK AO2 SLP176 T10331061
                 =
2017-12-18 04:53 METAR KGLD 181153Z AUTO 25007KT 10SM CLR M05/M07 A2998 RMK AO2 SLP175 T10501067
                 11022 21050 58003 =
2017-12-18 03:53 METAR KGLD 181053Z AUTO 26008KT 10SM CLR M04/M07 A2998 RMK AO2 SLP170 T10441067
                 =
2017-12-18 02:53 METAR KGLD 180953Z AUTO 27008KT 10SM CLR M04/M06 A2999 RMK AO2 SLP175 T10441061
                 =
2017-12-18 01:53 METAR KGLD 180853Z AUTO 25009KT 10SM CLR M03/M06 A2999 RMK AO2 SLP171 T10331061
                 53001 =
2017-12-18 00:53 METAR KGLD 180753Z AUTO 24008KT 10SM CLR M04/M06 A2997 RMK AO2 SLP165 T10391061
                 =
2017-12-17 23:53 METAR KGLD 180653Z AUTO 25009KT 10SM CLR M04/M06 A2997 RMK AO2 SLP169 T10441061
                 400501061 =
2017-12-17 22:53 METAR KGLD 180553Z AUTO 23010KT 10SM CLR M02/M05 A2998 RMK AO2 SLP170 T10221050
                 10006 21061 58004 =
2017-12-17 21:53 METAR KGLD 180453Z AUTO 23009KT 10SM CLR M02/M04 A2999 RMK AO2 SLP171 T10171044
                 =
2017-12-17 20:53 METAR KGLD 180353Z AUTO 23007KT 10SM CLR M05/M07 A3000 RMK AO2 SLP181 T10501067
                 =
2017-12-17 19:53 METAR KGLD 180253Z AUTO 24006KT 10SM CLR M05/M07 A2999 RMK AO2 SLP182 T10501072
                 51015 =
2017-12-17 18:53 METAR KGLD 180153Z AUTO 24006KT 10SM CLR M03/M06 A2998 RMK AO2 SLP175 T10281061
                 =
2017-12-17 17:53 METAR KGLD 180053Z AUTO 22005KT 10SM CLR M01/M05 A2997 RMK AO2 SLP166 T10111050
                 =
2017-12-17 16:53 METAR KGLD 172353Z AUTO 24005KT 10SM CLR 00/M05 A2994 RMK AO2 SLP157 T00001050
                 10050 20000 55002 =
2017-12-17 15:53 METAR KGLD 172253Z AUTO 26004KT 10SM FEW110 04/M03 A2994 RMK AO2 SLP151
                 T00391033 =
2017-12-17 14:53 METAR KGLD 172153Z AUTO 33004KT 10SM CLR 04/M04 A2994 RMK AO2 SLP148 T00441039 =
2017-12-17 13:53 METAR KGLD 172053Z AUTO 00000KT 10SM OVC030 04/M03 A2995 RMK AO2 SLP152
                 T00441033 56019 =
2017-12-17 13:45 METAR KGLD 172045Z AUTO 28005KT 10SM OVC030 04/M03 A2995 RMK AO2 T00441033 =
2017-12-17 12:53 METAR KGLD 171953Z AUTO 35006KT 10SM OVC024 03/M02 A2997 RMK AO2 SLP163
                 T00331022 =
2017-12-17 11:53 METAR KGLD 171853Z AUTO 36010KT 10SM SCT020 OVC027 03/M02 A2998 RMK AO2 SLP166
                 T00281017 =
2017-12-17 10:53 METAR KGLD 171753Z AUTO 33009KT 10SM SCT014 BKN019 OVC024 02/M01 A3001 RMK AO2
                 SLP179 T00221011 10028 20006 58005 =
2017-12-17 10:44 METAR KGLD 171744Z AUTO 34008KT 10SM SCT014 BKN020 OVC026 02/M01 A3002 RMK AO2
                 T00221011 =
2017-12-17 10:25 METAR KGLD 171725Z AUTO 34011KT 10SM BKN014 BKN020 OVC026 02/M01 A3002 RMK AO2
                 T00221011 =
2017-12-17 09:53 METAR KGLD 171653Z AUTO 35009KT 10SM SCT009 BKN016 OVC033 02/M01 A3003 RMK AO2
                 SLP186 T00221006 =
2017-12-17 09:40 METAR KGLD 171640Z AUTO 33011KT 10SM SCT009 OVC016 02/M01 A3003 RMK AO2
                 T00221006 =

Support USWX by starting your Amazon purchase here.